sensor_id;sensor_type;location;lat;lon;timestamp;P1;durP1;ratioP1;P2;durP2;ratioP2
5900;SDS011;2976;49.764;9.796;2023-02-15T00:01:53;140.43;;;34.60;;
5900;SDS011;2976;49.764;9.796;2023-02-15T00:04:20;128.17;;;34.10;;
5900;SDS011;2976;49.764;9.796;2023-02-15T00:06:49;103.63;;;31.60;;
5900;SDS011;2976;49.764;9.796;2023-02-15T00:09:15;114.23;;;32.90;;
5900;SDS011;2976;49.764;9.796;2023-02-15T00:11:41;125.03;;;33.77;;
5900;SDS011;2976;49.764;9.796;2023-02-15T00:16:42;111.83;;;32.63;;
5900;SDS011;2976;49.764;9.796;2023-02-15T00:19:09;121.00;;;33.57;;
5900;SDS011;2976;49.764;9.796;2023-02-15T00:21:36;117.03;;;31.23;;
5900;SDS011;2976;49.764;9.796;2023-02-15T00:24:03;127.10;;;33.10;;
5900;SDS011;2976;49.764;9.796;2023-02-15T00:26:30;106.13;;;34.80;;
5900;SDS011;2976;49.764;9.796;2023-02-15T00:28:56;107.43;;;31.17;;
5900;SDS011;2976;49.764;9.796;2023-02-15T00:31:23;104.43;;;30.77;;
5900;SDS011;2976;49.764;9.796;2023-02-15T00:33:50;106.53;;;31.43;;
5900;SDS011;2976;49.764;9.796;2023-02-15T00:36:15;107.60;;;31.20;;
5900;SDS011;2976;49.764;9.796;2023-02-15T00:38:41;112.07;;;30.07;;
5900;SDS011;2976;49.764;9.796;2023-02-15T00:41:07;111.83;;;31.03;;
5900;SDS011;2976;49.764;9.796;2023-02-15T00:43:34;111.77;;;30.23;;
5900;SDS011;2976;49.764;9.796;2023-02-15T00:46:00;104.87;;;28.87;;
5900;SDS011;2976;49.764;9.796;2023-02-15T00:48:26;143.50;;;30.87;;
5900;SDS011;2976;49.764;9.796;2023-02-15T00:50:53;143.67;;;32.23;;
5900;SDS011;2976;49.764;9.796;2023-02-15T00:53:23;97.23;;;29.13;;
5900;SDS011;2976;49.764;9.796;2023-02-15T00:55:50;103.23;;;25.90;;
5900;SDS011;2976;49.764;9.796;2023-02-15T00:58:15;106.57;;;30.43;;
5900;SDS011;2976;49.764;9.796;2023-02-15T01:00:42;93.37;;;28.93;;
5900;SDS011;2976;49.764;9.796;2023-02-15T01:03:10;113.63;;;30.33;;
5900;SDS011;2976;49.764;9.796;2023-02-15T01:05:36;99.90;;;30.90;;
5900;SDS011;2976;49.764;9.796;2023-02-15T01:08:02;110.30;;;29.17;;
5900;SDS011;2976;49.764;9.796;2023-02-15T01:10:28;132.73;;;32.57;;
5900;SDS011;2976;49.764;9.796;2023-02-15T01:12:54;87.67;;;28.10;;
5900;SDS011;2976;49.764;9.796;2023-02-15T01:15:20;103.90;;;29.70;;
5900;SDS011;2976;49.764;9.796;2023-02-15T01:17:46;98.67;;;29.00;;
5900;SDS011;2976;49.764;9.796;2023-02-15T01:20:23;97.97;;;26.73;;
5900;SDS011;2976;49.764;9.796;2023-02-15T01:22:52;91.60;;;24.80;;
5900;SDS011;2976;49.764;9.796;2023-02-15T01:25:20;93.27;;;26.43;;
5900;SDS011;2976;49.764;9.796;2023-02-15T01:27:46;93.70;;;25.27;;
5900;SDS011;2976;49.764;9.796;2023-02-15T01:30:12;81.10;;;23.63;;
5900;SDS011;2976;49.764;9.796;2023-02-15T01:32:39;72.87;;;25.77;;
5900;SDS011;2976;49.764;9.796;2023-02-15T01:35:06;77.00;;;26.20;;
5900;SDS011;2976;49.764;9.796;2023-02-15T01:37:33;84.17;;;23.67;;
5900;SDS011;2976;49.764;9.796;2023-02-15T01:40:06;64.60;;;21.10;;
5900;SDS011;2976;49.764;9.796;2023-02-15T01:42:36;74.57;;;22.77;;
5900;SDS011;2976;49.764;9.796;2023-02-15T01:48:03;90.20;;;24.37;;
5900;SDS011;2976;49.764;9.796;2023-02-15T01:50:32;56.07;;;20.67;;
5900;SDS011;2976;49.764;9.796;2023-02-15T01:53:17;60.20;;;21.70;;
5900;SDS011;2976;49.764;9.796;2023-02-15T01:55:57;72.10;;;21.10;;
5900;SDS011;2976;49.764;9.796;2023-02-15T01:58:27;81.07;;;19.93;;
5900;SDS011;2976;49.764;9.796;2023-02-15T02:00:54;55.70;;;20.93;;
5900;SDS011;2976;49.764;9.796;2023-02-15T02:03:24;97.93;;;24.10;;
5900;SDS011;2976;49.764;9.796;2023-02-15T02:06:01;74.50;;;23.40;;
5900;SDS011;2976;49.764;9.796;2023-02-15T02:08:26;70.93;;;21.20;;
5900;SDS011;2976;49.764;9.796;2023-02-15T02:10:52;91.10;;;22.07;;
5900;SDS011;2976;49.764;9.796;2023-02-15T02:13:18;93.13;;;21.90;;
5900;SDS011;2976;49.764;9.796;2023-02-15T02:15:57;79.23;;;23.43;;
5900;SDS011;2976;49.764;9.796;2023-02-15T02:21:25;97.37;;;23.17;;
5900;SDS011;2976;49.764;9.796;2023-02-15T02:38:08;69.03;;;21.90;;
5900;SDS011;2976;49.764;9.796;2023-02-15T02:43:15;73.70;;;23.53;;
5900;SDS011;2976;49.764;9.796;2023-02-15T02:46:17;118.77;;;25.23;;
5900;SDS011;2976;49.764;9.796;2023-02-15T02:48:47;86.27;;;22.43;;
5900;SDS011;2976;49.764;9.796;2023-02-15T02:51:14;106.90;;;23.13;;
5900;SDS011;2976;49.764;9.796;2023-02-15T02:53:46;108.53;;;26.60;;
5900;SDS011;2976;49.764;9.796;2023-02-15T02:58:47;66.57;;;22.53;;
5900;SDS011;2976;49.764;9.796;2023-02-15T03:01:21;79.63;;;22.63;;
5900;SDS011;2976;49.764;9.796;2023-02-15T03:04:05;57.33;;;20.50;;
5900;SDS011;2976;49.764;9.796;2023-02-15T03:06:42;76.00;;;22.03;;
5900;SDS011;2976;49.764;9.796;2023-02-15T03:09:14;74.30;;;19.97;;
5900;SDS011;2976;49.764;9.796;2023-02-15T03:11:45;78.43;;;22.30;;
5900;SDS011;2976;49.764;9.796;2023-02-15T03:14:11;78.23;;;20.33;;
5900;SDS011;2976;49.764;9.796;2023-02-15T03:16:39;64.87;;;21.10;;
5900;SDS011;2976;49.764;9.796;2023-02-15T03:19:10;58.37;;;20.70;;
5900;SDS011;2976;49.764;9.796;2023-02-15T03:24:09;63.37;;;18.80;;
5900;SDS011;2976;49.764;9.796;2023-02-15T03:26:37;136.27;;;22.87;;
5900;SDS011;2976;49.764;9.796;2023-02-15T03:29:04;187.27;;;26.00;;
5900;SDS011;2976;49.764;9.796;2023-02-15T03:31:33;145.70;;;23.53;;
5900;SDS011;2976;49.764;9.796;2023-02-15T03:34:04;109.00;;;21.07;;
5900;SDS011;2976;49.764;9.796;2023-02-15T03:39:17;95.67;;;21.47;;
5900;SDS011;2976;49.764;9.796;2023-02-15T03:41:48;139.13;;;23.03;;
5900;SDS011;2976;49.764;9.796;2023-02-15T03:44:50;113.03;;;24.00;;
5900;SDS011;2976;49.764;9.796;2023-02-15T03:47:25;141.97;;;23.80;;
5900;SDS011;2976;49.764;9.796;2023-02-15T03:50:01;116.30;;;25.07;;
5900;SDS011;2976;49.764;9.796;2023-02-15T03:52:54;178.87;;;25.23;;
5900;SDS011;2976;49.764;9.796;2023-02-15T03:55:20;100.57;;;23.10;;
5900;SDS011;2976;49.764;9.796;2023-02-15T03:57:46;95.10;;;22.30;;
5900;SDS011;2976;49.764;9.796;2023-02-15T04:00:30;94.03;;;23.27;;
5900;SDS011;2976;49.764;9.796;2023-02-15T04:03:26;135.40;;;22.80;;
5900;SDS011;2976;49.764;9.796;2023-02-15T04:06:02;106.87;;;23.23;;
5900;SDS011;2976;49.764;9.796;2023-02-15T04:08:28;95.77;;;23.73;;
5900;SDS011;2976;49.764;9.796;2023-02-15T04:11:12;91.40;;;22.13;;
5900;SDS011;2976;49.764;9.796;2023-02-15T04:13:38;80.50;;;19.67;;
5900;SDS011;2976;49.764;9.796;2023-02-15T04:16:04;83.90;;;21.20;;
5900;SDS011;2976;49.764;9.796;2023-02-15T04:18:30;129.10;;;21.00;;
5900;SDS011;2976;49.764;9.796;2023-02-15T04:21:20;93.57;;;20.87;;
5900;SDS011;2976;49.764;9.796;2023-02-15T04:24:04;83.23;;;20.20;;
5900;SDS011;2976;49.764;9.796;2023-02-15T04:26:49;76.93;;;19.63;;
5900;SDS011;2976;49.764;9.796;2023-02-15T04:29:17;63.80;;;21.87;;
5900;SDS011;2976;49.764;9.796;2023-02-15T04:31:43;105.33;;;21.20;;
5900;SDS011;2976;49.764;9.796;2023-02-15T04:34:09;64.53;;;20.70;;
5900;SDS011;2976;49.764;9.796;2023-02-15T04:36:35;48.80;;;19.67;;
5900;SDS011;2976;49.764;9.796;2023-02-15T04:39:02;59.37;;;19.57;;
5900;SDS011;2976;49.764;9.796;2023-02-15T04:41:27;54.40;;;20.77;;
5900;SDS011;2976;49.764;9.796;2023-02-15T04:43:53;55.27;;;18.90;;
5900;SDS011;2976;49.764;9.796;2023-02-15T04:46:19;65.57;;;19.83;;
5900;SDS011;2976;49.764;9.796;2023-02-15T04:48:44;68.57;;;20.33;;
5900;SDS011;2976;49.764;9.796;2023-02-15T04:51:10;52.27;;;18.37;;
5900;SDS011;2976;49.764;9.796;2023-02-15T04:53:36;62.23;;;17.13;;
5900;SDS011;2976;49.764;9.796;2023-02-15T04:56:01;68.07;;;19.90;;
5900;SDS011;2976;49.764;9.796;2023-02-15T04:58:27;51.17;;;18.40;;
5900;SDS011;2976;49.764;9.796;2023-02-15T05:00:56;63.50;;;18.70;;
5900;SDS011;2976;49.764;9.796;2023-02-15T05:03:22;72.33;;;17.80;;
5900;SDS011;2976;49.764;9.796;2023-02-15T05:05:47;65.47;;;17.77;;
5900;SDS011;2976;49.764;9.796;2023-02-15T05:08:13;76.90;;;19.30;;
5900;SDS011;2976;49.764;9.796;2023-02-15T05:10:39;109.77;;;21.10;;
5900;SDS011;2976;49.764;9.796;2023-02-15T05:13:04;142.53;;;20.17;;
5900;SDS011;2976;49.764;9.796;2023-02-15T05:15:30;66.77;;;18.53;;
5900;SDS011;2976;49.764;9.796;2023-02-15T05:17:55;93.07;;;18.97;;
5900;SDS011;2976;49.764;9.796;2023-02-15T05:20:21;100.03;;;21.20;;
5900;SDS011;2976;49.764;9.796;2023-02-15T05:22:46;106.40;;;21.03;;
5900;SDS011;2976;49.764;9.796;2023-02-15T05:25:12;75.70;;;19.57;;
5900;SDS011;2976;49.764;9.796;2023-02-15T05:27:56;79.87;;;19.17;;
5900;SDS011;2976;49.764;9.796;2023-02-15T05:30:40;62.70;;;20.20;;
5900;SDS011;2976;49.764;9.796;2023-02-15T05:33:06;61.27;;;19.80;;
5900;SDS011;2976;49.764;9.796;2023-02-15T05:35:32;106.90;;;22.10;;
5900;SDS011;2976;49.764;9.796;2023-02-15T05:37:58;67.37;;;18.67;;
5900;SDS011;2976;49.764;9.796;2023-02-15T05:40:24;86.13;;;20.27;;
5900;SDS011;2976;49.764;9.796;2023-02-15T05:42:50;101.57;;;19.70;;
5900;SDS011;2976;49.764;9.796;2023-02-15T05:45:15;57.93;;;19.17;;
5900;SDS011;2976;49.764;9.796;2023-02-15T05:47:41;123.67;;;20.77;;
5900;SDS011;2976;49.764;9.796;2023-02-15T05:50:07;79.60;;;21.57;;
5900;SDS011;2976;49.764;9.796;2023-02-15T05:52:33;123.43;;;19.87;;
5900;SDS011;2976;49.764;9.796;2023-02-15T05:54:59;73.33;;;20.13;;
5900;SDS011;2976;49.764;9.796;2023-02-15T05:57:25;58.40;;;19.00;;
5900;SDS011;2976;49.764;9.796;2023-02-15T05:59:51;96.70;;;18.93;;
5900;SDS011;2976;49.764;9.796;2023-02-15T06:02:17;90.00;;;20.90;;
5900;SDS011;2976;49.764;9.796;2023-02-15T06:04:43;111.53;;;22.70;;
5900;SDS011;2976;49.764;9.796;2023-02-15T06:07:09;57.17;;;18.80;;
5900;SDS011;2976;49.764;9.796;2023-02-15T06:09:34;82.77;;;19.90;;
5900;SDS011;2976;49.764;9.796;2023-02-15T06:12:00;133.63;;;22.07;;
5900;SDS011;2976;49.764;9.796;2023-02-15T06:14:25;83.27;;;21.40;;
5900;SDS011;2976;49.764;9.796;2023-02-15T06:16:51;114.90;;;22.77;;
5900;SDS011;2976;49.764;9.796;2023-02-15T06:19:16;206.13;;;23.40;;
5900;SDS011;2976;49.764;9.796;2023-02-15T06:21:43;89.43;;;19.47;;
5900;SDS011;2976;49.764;9.796;2023-02-15T06:24:09;79.83;;;20.73;;
5900;SDS011;2976;49.764;9.796;2023-02-15T06:26:34;160.43;;;22.07;;
5900;SDS011;2976;49.764;9.796;2023-02-15T06:29:00;131.67;;;22.47;;
5900;SDS011;2976;49.764;9.796;2023-02-15T06:31:25;121.50;;;19.90;;
5900;SDS011;2976;49.764;9.796;2023-02-15T06:33:51;205.57;;;22.73;;
5900;SDS011;2976;49.764;9.796;2023-02-15T06:36:16;98.33;;;22.60;;
5900;SDS011;2976;49.764;9.796;2023-02-15T06:38:42;99.47;;;21.07;;
5900;SDS011;2976;49.764;9.796;2023-02-15T06:41:07;120.80;;;22.00;;
5900;SDS011;2976;49.764;9.796;2023-02-15T06:43:33;117.47;;;23.27;;
5900;SDS011;2976;49.764;9.796;2023-02-15T06:45:59;68.50;;;20.23;;
5900;SDS011;2976;49.764;9.796;2023-02-15T06:48:25;86.60;;;19.70;;
5900;SDS011;2976;49.764;9.796;2023-02-15T06:50:51;109.40;;;21.97;;
5900;SDS011;2976;49.764;9.796;2023-02-15T06:53:17;143.33;;;23.90;;
5900;SDS011;2976;49.764;9.796;2023-02-15T06:55:42;89.00;;;19.30;;
5900;SDS011;2976;49.764;9.796;2023-02-15T06:58:08;88.77;;;21.53;;
5900;SDS011;2976;49.764;9.796;2023-02-15T07:00:33;137.23;;;25.10;;
5900;SDS011;2976;49.764;9.796;2023-02-15T07:02:59;72.07;;;20.27;;
5900;SDS011;2976;49.764;9.796;2023-02-15T07:05:26;60.27;;;18.97;;
5900;SDS011;2976;49.764;9.796;2023-02-15T07:07:56;76.27;;;21.40;;
5900;SDS011;2976;49.764;9.796;2023-02-15T07:10:22;68.43;;;20.80;;
5900;SDS011;2976;49.764;9.796;2023-02-15T07:12:48;64.13;;;20.17;;
5900;SDS011;2976;49.764;9.796;2023-02-15T07:15:14;120.83;;;21.67;;
5900;SDS011;2976;49.764;9.796;2023-02-15T07:17:41;56.40;;;19.83;;
5900;SDS011;2976;49.764;9.796;2023-02-15T07:20:09;76.13;;;19.30;;
5900;SDS011;2976;49.764;9.796;2023-02-15T07:22:39;63.40;;;20.67;;
5900;SDS011;2976;49.764;9.796;2023-02-15T07:25:06;57.37;;;18.40;;
5900;SDS011;2976;49.764;9.796;2023-02-15T07:27:33;72.23;;;19.20;;
5900;SDS011;2976;49.764;9.796;2023-02-15T07:29:59;79.90;;;19.23;;
5900;SDS011;2976;49.764;9.796;2023-02-15T07:32:29;78.43;;;19.23;;
5900;SDS011;2976;49.764;9.796;2023-02-15T07:34:56;81.77;;;21.00;;
5900;SDS011;2976;49.764;9.796;2023-02-15T07:37:22;80.93;;;19.83;;
5900;SDS011;2976;49.764;9.796;2023-02-15T07:39:47;90.90;;;21.17;;
5900;SDS011;2976;49.764;9.796;2023-02-15T07:42:13;83.87;;;17.33;;
5900;SDS011;2976;49.764;9.796;2023-02-15T07:44:38;83.13;;;18.00;;
5900;SDS011;2976;49.764;9.796;2023-02-15T07:47:04;76.67;;;19.70;;
5900;SDS011;2976;49.764;9.796;2023-02-15T07:49:30;57.57;;;18.20;;
5900;SDS011;2976;49.764;9.796;2023-02-15T07:51:55;67.40;;;18.20;;
5900;SDS011;2976;49.764;9.796;2023-02-15T07:54:21;62.73;;;16.10;;
5900;SDS011;2976;49.764;9.796;2023-02-15T07:56:46;79.33;;;19.83;;
5900;SDS011;2976;49.764;9.796;2023-02-15T07:59:12;56.60;;;16.10;;
5900;SDS011;2976;49.764;9.796;2023-02-15T08:01:38;121.83;;;22.30;;
5900;SDS011;2976;49.764;9.796;2023-02-15T08:04:04;79.43;;;18.30;;
5900;SDS011;2976;49.764;9.796;2023-02-15T08:06:32;60.40;;;18.23;;
5900;SDS011;2976;49.764;9.796;2023-02-15T08:08:59;70.43;;;17.97;;
5900;SDS011;2976;49.764;9.796;2023-02-15T08:11:29;55.93;;;16.80;;
5900;SDS011;2976;49.764;9.796;2023-02-15T08:14:09;87.83;;;17.23;;
5900;SDS011;2976;49.764;9.796;2023-02-15T08:16:40;51.70;;;16.57;;
5900;SDS011;2976;49.764;9.796;2023-02-15T08:19:11;136.80;;;19.30;;
5900;SDS011;2976;49.764;9.796;2023-02-15T08:21:48;63.43;;;19.17;;
5900;SDS011;2976;49.764;9.796;2023-02-15T08:24:16;55.37;;;18.20;;
5900;SDS011;2976;49.764;9.796;2023-02-15T08:26:44;48.40;;;17.87;;
5900;SDS011;2976;49.764;9.796;2023-02-15T08:29:11;75.53;;;17.13;;
5900;SDS011;2976;49.764;9.796;2023-02-15T08:31:38;116.00;;;23.00;;
5900;SDS011;2976;49.764;9.796;2023-02-15T08:34:05;57.93;;;18.93;;
5900;SDS011;2976;49.764;9.796;2023-02-15T08:36:32;106.50;;;20.80;;
5900;SDS011;2976;49.764;9.796;2023-02-15T08:38:58;78.93;;;19.67;;
5900;SDS011;2976;49.764;9.796;2023-02-15T08:41:29;49.07;;;19.17;;
5900;SDS011;2976;49.764;9.796;2023-02-15T08:43:57;55.80;;;19.10;;
5900;SDS011;2976;49.764;9.796;2023-02-15T08:46:25;74.07;;;21.47;;
5900;SDS011;2976;49.764;9.796;2023-02-15T08:48:53;66.63;;;21.33;;
5900;SDS011;2976;49.764;9.796;2023-02-15T08:51:20;41.33;;;18.20;;
5900;SDS011;2976;49.764;9.796;2023-02-15T08:53:54;41.33;;;18.10;;
5900;SDS011;2976;49.764;9.796;2023-02-15T08:56:25;49.20;;;19.70;;
5900;SDS011;2976;49.764;9.796;2023-02-15T08:58:58;64.50;;;20.73;;
5900;SDS011;2976;49.764;9.796;2023-02-15T09:01:25;67.23;;;20.43;;
5900;SDS011;2976;49.764;9.796;2023-02-15T09:03:55;55.00;;;19.90;;
5900;SDS011;2976;49.764;9.796;2023-02-15T09:06:22;59.53;;;22.20;;
5900;SDS011;2976;49.764;9.796;2023-02-15T09:08:49;44.83;;;18.57;;
5900;SDS011;2976;49.764;9.796;2023-02-15T09:11:17;52.67;;;18.40;;
5900;SDS011;2976;49.764;9.796;2023-02-15T09:13:47;57.97;;;21.00;;
5900;SDS011;2976;49.764;9.796;2023-02-15T09:16:14;55.77;;;20.27;;
5900;SDS011;2976;49.764;9.796;2023-02-15T09:18:41;105.90;;;22.00;;
5900;SDS011;2976;49.764;9.796;2023-02-15T09:21:09;55.27;;;19.20;;
5900;SDS011;2976;49.764;9.796;2023-02-15T09:23:38;44.83;;;17.73;;
5900;SDS011;2976;49.764;9.796;2023-02-15T09:26:06;53.97;;;18.10;;
5900;SDS011;2976;49.764;9.796;2023-02-15T09:28:33;45.60;;;18.13;;
5900;SDS011;2976;49.764;9.796;2023-02-15T09:31:09;42.70;;;19.23;;
5900;SDS011;2976;49.764;9.796;2023-02-15T09:33:40;60.03;;;17.87;;
5900;SDS011;2976;49.764;9.796;2023-02-15T09:36:14;45.63;;;18.47;;
5900;SDS011;2976;49.764;9.796;2023-02-15T09:38:42;51.47;;;18.90;;
5900;SDS011;2976;49.764;9.796;2023-02-15T09:41:27;70.27;;;19.00;;
5900;SDS011;2976;49.764;9.796;2023-02-15T09:50:10;36.07;;;15.57;;
5900;SDS011;2976;49.764;9.796;2023-02-15T09:55:22;49.57;;;19.83;;
5900;SDS011;2976;49.764;9.796;2023-02-15T09:57:53;48.07;;;18.43;;
5900;SDS011;2976;49.764;9.796;2023-02-15T10:03:13;47.63;;;18.93;;
5900;SDS011;2976;49.764;9.796;2023-02-15T10:12:07;39.37;;;18.00;;
5900;SDS011;2976;49.764;9.796;2023-02-15T10:15:05;50.70;;;18.43;;
5900;SDS011;2976;49.764;9.796;2023-02-15T10:17:46;46.97;;;18.63;;
5900;SDS011;2976;49.764;9.796;2023-02-15T10:23:27;50.67;;;19.23;;
5900;SDS011;2976;49.764;9.796;2023-02-15T10:26:05;49.10;;;20.17;;
5900;SDS011;2976;49.764;9.796;2023-02-15T10:29:11;54.77;;;21.17;;
5900;SDS011;2976;49.764;9.796;2023-02-15T10:34:32;42.23;;;19.40;;
5900;SDS011;2976;49.764;9.796;2023-02-15T10:37:17;42.03;;;18.40;;
5900;SDS011;2976;49.764;9.796;2023-02-15T10:48:34;44.13;;;20.90;;
5900;SDS011;2976;49.764;9.796;2023-02-15T10:59:51;44.17;;;19.63;;
5900;SDS011;2976;49.764;9.796;2023-02-15T11:08:27;39.00;;;18.20;;
5900;SDS011;2976;49.764;9.796;2023-02-15T11:11:01;39.13;;;18.33;;
5900;SDS011;2976;49.764;9.796;2023-02-15T11:13:32;44.80;;;19.57;;
5900;SDS011;2976;49.764;9.796;2023-02-15T11:16:05;43.33;;;20.23;;
5900;SDS011;2976;49.764;9.796;2023-02-15T11:18:50;47.33;;;20.93;;
5900;SDS011;2976;49.764;9.796;2023-02-15T11:21:26;38.77;;;19.33;;
5900;SDS011;2976;49.764;9.796;2023-02-15T11:23:59;39.53;;;19.17;;
5900;SDS011;2976;49.764;9.796;2023-02-15T11:29:18;37.53;;;17.87;;
5900;SDS011;2976;49.764;9.796;2023-02-15T11:32:15;35.23;;;17.90;;
5900;SDS011;2976;49.764;9.796;2023-02-15T11:34:50;34.07;;;16.83;;
5900;SDS011;2976;49.764;9.796;2023-02-15T11:37:18;36.77;;;18.00;;
5900;SDS011;2976;49.764;9.796;2023-02-15T11:39:50;32.27;;;16.30;;
5900;SDS011;2976;49.764;9.796;2023-02-15T11:42:20;32.57;;;16.77;;
5900;SDS011;2976;49.764;9.796;2023-02-15T11:44:57;33.13;;;16.87;;
5900;SDS011;2976;49.764;9.796;2023-02-15T11:47:29;34.57;;;17.90;;
5900;SDS011;2976;49.764;9.796;2023-02-15T11:49:54;27.77;;;15.20;;
5900;SDS011;2976;49.764;9.796;2023-02-15T11:52:21;27.43;;;15.77;;
5900;SDS011;2976;49.764;9.796;2023-02-15T11:54:48;32.57;;;16.40;;
5900;SDS011;2976;49.764;9.796;2023-02-15T12:00:10;32.40;;;16.73;;
5900;SDS011;2976;49.764;9.796;2023-02-15T12:03:00;29.03;;;15.50;;
5900;SDS011;2976;49.764;9.796;2023-02-15T12:05:49;32.40;;;17.60;;
5900;SDS011;2976;49.764;9.796;2023-02-15T12:08:23;30.10;;;16.50;;
5900;SDS011;2976;49.764;9.796;2023-02-15T12:13:22;29.73;;;16.10;;
5900;SDS011;2976;49.764;9.796;2023-02-15T12:15:50;39.30;;;17.53;;
5900;SDS011;2976;49.764;9.796;2023-02-15T12:21:02;28.30;;;15.73;;
5900;SDS011;2976;49.764;9.796;2023-02-15T12:23:44;34.00;;;17.17;;
5900;SDS011;2976;49.764;9.796;2023-02-15T12:26:13;31.60;;;16.07;;
5900;SDS011;2976;49.764;9.796;2023-02-15T12:28:43;28.67;;;17.03;;
5900;SDS011;2976;49.764;9.796;2023-02-15T12:31:21;30.00;;;16.57;;
5900;SDS011;2976;49.764;9.796;2023-02-15T12:34:21;29.60;;;16.90;;
5900;SDS011;2976;49.764;9.796;2023-02-15T12:36:51;28.67;;;15.17;;
5900;SDS011;2976;49.764;9.796;2023-02-15T12:39:28;37.23;;;16.70;;
5900;SDS011;2976;49.764;9.796;2023-02-15T12:41:58;30.23;;;15.70;;
5900;SDS011;2976;49.764;9.796;2023-02-15T12:44:33;29.73;;;15.80;;
5900;SDS011;2976;49.764;9.796;2023-02-15T12:49:34;33.30;;;18.50;;
5900;SDS011;2976;49.764;9.796;2023-02-15T12:52:05;27.57;;;15.83;;
5900;SDS011;2976;49.764;9.796;2023-02-15T12:54:48;29.13;;;17.00;;
5900;SDS011;2976;49.764;9.796;2023-02-15T12:57:21;33.07;;;16.97;;
5900;SDS011;2976;49.764;9.796;2023-02-15T13:02:34;33.90;;;17.83;;
5900;SDS011;2976;49.764;9.796;2023-02-15T13:05:19;32.10;;;15.97;;
5900;SDS011;2976;49.764;9.796;2023-02-15T13:07:53;31.37;;;16.30;;
5900;SDS011;2976;49.764;9.796;2023-02-15T13:10:24;31.60;;;16.80;;
5900;SDS011;2976;49.764;9.796;2023-02-15T13:12:50;35.43;;;17.33;;
5900;SDS011;2976;49.764;9.796;2023-02-15T13:15:26;32.67;;;16.83;;
5900;SDS011;2976;49.764;9.796;2023-02-15T13:17:57;29.63;;;16.60;;
5900;SDS011;2976;49.764;9.796;2023-02-15T13:20:23;35.07;;;19.03;;
5900;SDS011;2976;49.764;9.796;2023-02-15T13:22:52;29.30;;;16.90;;
5900;SDS011;2976;49.764;9.796;2023-02-15T13:25:26;38.20;;;18.77;;
5900;SDS011;2976;49.764;9.796;2023-02-15T13:27:57;43.10;;;19.70;;
5900;SDS011;2976;49.764;9.796;2023-02-15T13:30:28;29.83;;;17.00;;
5900;SDS011;2976;49.764;9.796;2023-02-15T13:33:02;37.97;;;16.47;;
5900;SDS011;2976;49.764;9.796;2023-02-15T13:35:34;34.30;;;18.67;;
5900;SDS011;2976;49.764;9.796;2023-02-15T13:38:11;32.20;;;17.33;;
5900;SDS011;2976;49.764;9.796;2023-02-15T13:40:48;35.47;;;17.33;;
5900;SDS011;2976;49.764;9.796;2023-02-15T13:46:32;48.97;;;16.53;;
5900;SDS011;2976;49.764;9.796;2023-02-15T13:54:43;33.10;;;16.93;;
5900;SDS011;2976;49.764;9.796;2023-02-15T14:00:22;31.20;;;16.23;;
5900;SDS011;2976;49.764;9.796;2023-02-15T14:03:18;32.73;;;16.77;;
5900;SDS011;2976;49.764;9.796;2023-02-15T14:06:00;29.67;;;16.70;;
5900;SDS011;2976;49.764;9.796;2023-02-15T14:17:17;40.43;;;18.93;;
5900;SDS011;2976;49.764;9.796;2023-02-15T14:19:48;30.17;;;17.73;;
5900;SDS011;2976;49.764;9.796;2023-02-15T14:22:33;32.43;;;16.57;;
5900;SDS011;2976;49.764;9.796;2023-02-15T14:30:39;33.03;;;18.30;;
5900;SDS011;2976;49.764;9.796;2023-02-15T14:33:28;29.13;;;16.00;;
5900;SDS011;2976;49.764;9.796;2023-02-15T14:35:58;28.30;;;16.50;;
5900;SDS011;2976;49.764;9.796;2023-02-15T14:48:47;31.03;;;16.40;;
5900;SDS011;2976;49.764;9.796;2023-02-15T14:54:10;26.60;;;15.53;;
5900;SDS011;2976;49.764;9.796;2023-02-15T14:56:45;29.93;;;16.90;;
5900;SDS011;2976;49.764;9.796;2023-02-15T15:02:13;34.30;;;16.87;;
5900;SDS011;2976;49.764;9.796;2023-02-15T15:04:44;28.00;;;15.50;;
5900;SDS011;2976;49.764;9.796;2023-02-15T15:07:22;30.50;;;15.80;;
5900;SDS011;2976;49.764;9.796;2023-02-15T15:15:44;36.23;;;17.77;;
5900;SDS011;2976;49.764;9.796;2023-02-15T15:18:10;30.53;;;16.20;;
5900;SDS011;2976;49.764;9.796;2023-02-15T15:21:08;31.40;;;16.60;;
5900;SDS011;2976;49.764;9.796;2023-02-15T15:23:43;29.37;;;15.67;;
5900;SDS011;2976;49.764;9.796;2023-02-15T15:26:20;32.67;;;16.20;;
5900;SDS011;2976;49.764;9.796;2023-02-15T15:34:16;35.67;;;18.80;;
5900;SDS011;2976;49.764;9.796;2023-02-15T15:42:12;44.73;;;19.33;;
5900;SDS011;2976;49.764;9.796;2023-02-15T15:50:15;39.97;;;20.10;;
5900;SDS011;2976;49.764;9.796;2023-02-15T15:52:48;34.37;;;19.20;;
5900;SDS011;2976;49.764;9.796;2023-02-15T15:55:20;39.17;;;19.80;;
5900;SDS011;2976;49.764;9.796;2023-02-15T15:57:58;34.23;;;18.07;;
5900;SDS011;2976;49.764;9.796;2023-02-15T16:00:33;34.10;;;18.20;;
5900;SDS011;2976;49.764;9.796;2023-02-15T16:03:14;34.73;;;17.30;;
5900;SDS011;2976;49.764;9.796;2023-02-15T16:05:41;37.90;;;19.37;;
5900;SDS011;2976;49.764;9.796;2023-02-15T16:08:06;42.67;;;20.57;;
5900;SDS011;2976;49.764;9.796;2023-02-15T16:10:32;38.50;;;19.37;;
5900;SDS011;2976;49.764;9.796;2023-02-15T16:13:00;41.93;;;20.57;;
5900;SDS011;2976;49.764;9.796;2023-02-15T16:15:36;41.40;;;22.43;;
5900;SDS011;2976;49.764;9.796;2023-02-15T16:18:10;39.83;;;20.03;;
5900;SDS011;2976;49.764;9.796;2023-02-15T16:20:40;38.10;;;19.50;;
5900;SDS011;2976;49.764;9.796;2023-02-15T16:26:10;37.53;;;19.67;;
5900;SDS011;2976;49.764;9.796;2023-02-15T16:28:51;42.97;;;19.17;;
5900;SDS011;2976;49.764;9.796;2023-02-15T16:31:18;46.83;;;20.57;;
5900;SDS011;2976;49.764;9.796;2023-02-15T16:33:47;47.50;;;21.97;;
5900;SDS011;2976;49.764;9.796;2023-02-15T16:36:19;48.10;;;21.97;;
5900;SDS011;2976;49.764;9.796;2023-02-15T16:41:30;56.50;;;22.07;;
5900;SDS011;2976;49.764;9.796;2023-02-15T16:43:57;46.57;;;22.60;;
5900;SDS011;2976;49.764;9.796;2023-02-15T16:46:36;51.73;;;24.20;;
5900;SDS011;2976;49.764;9.796;2023-02-15T16:49:07;51.03;;;24.20;;
5900;SDS011;2976;49.764;9.796;2023-02-15T16:51:56;49.70;;;22.67;;
5900;SDS011;2976;49.764;9.796;2023-02-15T16:54:27;57.40;;;24.60;;
5900;SDS011;2976;49.764;9.796;2023-02-15T16:56:56;68.07;;;25.53;;
5900;SDS011;2976;49.764;9.796;2023-02-15T17:01:59;64.40;;;25.90;;
5900;SDS011;2976;49.764;9.796;2023-02-15T17:04:29;54.57;;;24.00;;
5900;SDS011;2976;49.764;9.796;2023-02-15T17:06:57;73.73;;;24.60;;
5900;SDS011;2976;49.764;9.796;2023-02-15T17:09:29;67.17;;;23.70;;
5900;SDS011;2976;49.764;9.796;2023-02-15T17:11:55;64.67;;;25.07;;
5900;SDS011;2976;49.764;9.796;2023-02-15T17:14:29;62.40;;;26.50;;
5900;SDS011;2976;49.764;9.796;2023-02-15T17:17:00;68.83;;;24.90;;
5900;SDS011;2976;49.764;9.796;2023-02-15T17:22:25;61.23;;;22.87;;
5900;SDS011;2976;49.764;9.796;2023-02-15T17:25:02;65.53;;;27.67;;
5900;SDS011;2976;49.764;9.796;2023-02-15T17:27:29;77.30;;;25.63;;
5900;SDS011;2976;49.764;9.796;2023-02-15T17:30:01;63.83;;;25.77;;
5900;SDS011;2976;49.764;9.796;2023-02-15T17:32:37;76.00;;;27.27;;
5900;SDS011;2976;49.764;9.796;2023-02-15T17:40:07;81.07;;;29.77;;
5900;SDS011;2976;49.764;9.796;2023-02-15T17:42:44;96.03;;;29.90;;
5900;SDS011;2976;49.764;9.796;2023-02-15T17:45:09;83.07;;;29.10;;
5900;SDS011;2976;49.764;9.796;2023-02-15T17:47:35;78.80;;;29.63;;
5900;SDS011;2976;49.764;9.796;2023-02-15T17:50:01;85.43;;;30.00;;
5900;SDS011;2976;49.764;9.796;2023-02-15T17:52:29;93.47;;;29.93;;
5900;SDS011;2976;49.764;9.796;2023-02-15T17:54:55;80.20;;;29.90;;
5900;SDS011;2976;49.764;9.796;2023-02-15T17:57:39;82.97;;;29.67;;
5900;SDS011;2976;49.764;9.796;2023-02-15T18:00:06;72.30;;;28.63;;
5900;SDS011;2976;49.764;9.796;2023-02-15T18:02:51;79.93;;;32.60;;
5900;SDS011;2976;49.764;9.796;2023-02-15T18:05:35;95.70;;;32.67;;